sensor_id;sensor_type;location;lat;lon;timestamp;P1;durP1;ratioP1;P2;durP2;ratioP2
36385;SDS011;24125;47.482;8.770;2022-09-06T00:01:26;4.95;;;2.05;;
36385;SDS011;24125;47.482;8.770;2022-09-06T00:03:59;3.03;;;2.17;;
36385;SDS011;24125;47.482;8.770;2022-09-06T00:06:32;9.18;;;2.28;;
36385;SDS011;24125;47.482;8.770;2022-09-06T00:09:05;6.40;;;2.28;;
36385;SDS011;24125;47.482;8.770;2022-09-06T00:11:38;4.28;;;1.92;;
36385;SDS011;24125;47.482;8.770;2022-09-06T00:14:13;3.05;;;2.13;;
36385;SDS011;24125;47.482;8.770;2022-09-06T00:16:46;4.68;;;2.08;;
36385;SDS011;24125;47.482;8.770;2022-09-06T00:19:19;3.33;;;2.20;;
36385;SDS011;24125;47.482;8.770;2022-09-06T00:21:51;2.47;;;2.08;;
36385;SDS011;24125;47.482;8.770;2022-09-06T00:24:24;4.55;;;1.95;;
36385;SDS011;24125;47.482;8.770;2022-09-06T00:26:58;3.38;;;2.30;;
36385;SDS011;24125;47.482;8.770;2022-09-06T00:29:32;3.15;;;2.58;;
36385;SDS011;24125;47.482;8.770;2022-09-06T00:32:06;2.95;;;2.15;;
36385;SDS011;24125;47.482;8.770;2022-09-06T00:34:39;5.30;;;2.13;;
36385;SDS011;24125;47.482;8.770;2022-09-06T00:37:12;3.20;;;2.00;;
36385;SDS011;24125;47.482;8.770;2022-09-06T00:39:45;2.33;;;2.10;;
36385;SDS011;24125;47.482;8.770;2022-09-06T00:42:18;2.72;;;2.30;;
36385;SDS011;24125;47.482;8.770;2022-09-06T00:44:53;3.70;;;2.40;;
36385;SDS011;24125;47.482;8.770;2022-09-06T00:47:26;4.70;;;2.20;;
36385;SDS011;24125;47.482;8.770;2022-09-06T00:50:00;2.28;;;2.00;;
36385;SDS011;24125;47.482;8.770;2022-09-06T00:52:33;4.72;;;2.25;;
36385;SDS011;24125;47.482;8.770;2022-09-06T00:55:09;3.13;;;1.98;;
36385;SDS011;24125;47.482;8.770;2022-09-06T00:57:42;3.30;;;2.20;;
36385;SDS011;24125;47.482;8.770;2022-09-06T01:00:19;4.35;;;2.28;;
36385;SDS011;24125;47.482;8.770;2022-09-06T01:02:52;5.13;;;2.33;;
36385;SDS011;24125;47.482;8.770;2022-09-06T01:05:30;3.03;;;2.00;;
36385;SDS011;24125;47.482;8.770;2022-09-06T01:08:13;3.55;;;2.08;;
36385;SDS011;24125;47.482;8.770;2022-09-06T01:10:56;2.38;;;2.00;;
36385;SDS011;24125;47.482;8.770;2022-09-06T01:13:44;2.63;;;2.08;;
36385;SDS011;24125;47.482;8.770;2022-09-06T01:16:28;3.72;;;2.03;;
36385;SDS011;24125;47.482;8.770;2022-09-06T01:19:24;2.50;;;1.83;;
36385;SDS011;24125;47.482;8.770;2022-09-06T01:22:21;3.55;;;2.10;;
36385;SDS011;24125;47.482;8.770;2022-09-06T01:25:19;4.65;;;1.90;;
36385;SDS011;24125;47.482;8.770;2022-09-06T01:28:16;2.80;;;2.00;;
36385;SDS011;24125;47.482;8.770;2022-09-06T01:30:59;3.90;;;1.80;;
36385;SDS011;24125;47.482;8.770;2022-09-06T01:33:42;2.95;;;2.10;;
36385;SDS011;24125;47.482;8.770;2022-09-06T01:36:21;3.05;;;1.83;;
36385;SDS011;24125;47.482;8.770;2022-09-06T01:38:58;3.60;;;1.75;;
36385;SDS011;24125;47.482;8.770;2022-09-06T01:41:31;3.20;;;2.17;;
36385;SDS011;24125;47.482;8.770;2022-09-06T01:44:06;4.00;;;2.10;;
36385;SDS011;24125;47.482;8.770;2022-09-06T01:46:39;3.25;;;2.22;;
36385;SDS011;24125;47.482;8.770;2022-09-06T01:49:21;3.97;;;1.90;;
36385;SDS011;24125;47.482;8.770;2022-09-06T01:52:07;4.20;;;2.40;;
36385;SDS011;24125;47.482;8.770;2022-09-06T01:54:50;2.78;;;2.20;;
36385;SDS011;24125;47.482;8.770;2022-09-06T01:57:39;3.85;;;2.17;;
36385;SDS011;24125;47.482;8.770;2022-09-06T02:00:23;5.57;;;2.28;;
36385;SDS011;24125;47.482;8.770;2022-09-06T02:02:59;3.72;;;2.13;;
36385;SDS011;24125;47.482;8.770;2022-09-06T02:05:41;3.05;;;2.10;;
36385;SDS011;24125;47.482;8.770;2022-09-06T02:08:19;2.67;;;1.90;;
36385;SDS011;24125;47.482;8.770;2022-09-06T02:10:58;6.10;;;2.00;;
36385;SDS011;24125;47.482;8.770;2022-09-06T02:13:34;3.05;;;2.08;;
36385;SDS011;24125;47.482;8.770;2022-09-06T02:16:12;3.30;;;2.30;;
36385;SDS011;24125;47.482;8.770;2022-09-06T02:18:51;3.75;;;2.20;;
36385;SDS011;24125;47.482;8.770;2022-09-06T02:21:29;3.78;;;2.15;;
36385;SDS011;24125;47.482;8.770;2022-09-06T02:24:07;2.88;;;1.98;;
36385;SDS011;24125;47.482;8.770;2022-09-06T02:26:43;3.40;;;1.90;;
36385;SDS011;24125;47.482;8.770;2022-09-06T02:29:17;5.53;;;2.35;;
36385;SDS011;24125;47.482;8.770;2022-09-06T02:31:52;2.67;;;2.08;;
36385;SDS011;24125;47.482;8.770;2022-09-06T02:34:33;3.42;;;2.28;;
36385;SDS011;24125;47.482;8.770;2022-09-06T02:37:09;3.85;;;2.03;;
36385;SDS011;24125;47.482;8.770;2022-09-06T02:39:43;2.60;;;1.95;;
36385;SDS011;24125;47.482;8.770;2022-09-06T02:42:16;3.75;;;2.03;;
36385;SDS011;24125;47.482;8.770;2022-09-06T02:44:49;11.48;;;2.40;;
36385;SDS011;24125;47.482;8.770;2022-09-06T02:47:24;5.00;;;1.90;;
36385;SDS011;24125;47.482;8.770;2022-09-06T02:49:57;3.58;;;1.85;;
36385;SDS011;24125;47.482;8.770;2022-09-06T02:52:30;3.15;;;1.80;;
36385;SDS011;24125;47.482;8.770;2022-09-06T02:55:03;5.50;;;1.70;;
36385;SDS011;24125;47.482;8.770;2022-09-06T02:57:37;2.30;;;1.77;;
36385;SDS011;24125;47.482;8.770;2022-09-06T03:00:11;4.20;;;1.92;;
36385;SDS011;24125;47.482;8.770;2022-09-06T03:02:46;3.33;;;2.10;;
36385;SDS011;24125;47.482;8.770;2022-09-06T03:05:19;3.55;;;1.88;;
36385;SDS011;24125;47.482;8.770;2022-09-06T03:07:52;3.20;;;2.00;;
36385;SDS011;24125;47.482;8.770;2022-09-06T03:10:26;3.08;;;1.92;;
36385;SDS011;24125;47.482;8.770;2022-09-06T03:12:59;2.47;;;2.00;;
36385;SDS011;24125;47.482;8.770;2022-09-06T03:15:31;3.72;;;2.00;;
36385;SDS011;24125;47.482;8.770;2022-09-06T03:18:06;3.38;;;1.80;;
36385;SDS011;24125;47.482;8.770;2022-09-06T03:20:39;3.63;;;1.55;;
36385;SDS011;24125;47.482;8.770;2022-09-06T03:23:12;2.38;;;1.80;;
36385;SDS011;24125;47.482;8.770;2022-09-06T03:25:45;2.95;;;1.83;;
36385;SDS011;24125;47.482;8.770;2022-09-06T03:28:21;2.65;;;1.80;;
36385;SDS011;24125;47.482;8.770;2022-09-06T03:30:54;4.22;;;1.73;;
36385;SDS011;24125;47.482;8.770;2022-09-06T03:33:29;3.95;;;1.85;;
36385;SDS011;24125;47.482;8.770;2022-09-06T03:36:02;3.97;;;1.73;;
36385;SDS011;24125;47.482;8.770;2022-09-06T03:38:35;3.03;;;1.75;;
36385;SDS011;24125;47.482;8.770;2022-09-06T03:41:08;2.80;;;1.63;;
36385;SDS011;24125;47.482;8.770;2022-09-06T03:43:41;2.47;;;2.00;;
36385;SDS011;24125;47.482;8.770;2022-09-06T03:46:14;3.72;;;1.70;;
36385;SDS011;24125;47.482;8.770;2022-09-06T03:48:48;2.10;;;1.90;;
36385;SDS011;24125;47.482;8.770;2022-09-06T03:51:21;3.22;;;2.10;;
36385;SDS011;24125;47.482;8.770;2022-09-06T03:53:54;6.80;;;2.28;;
36385;SDS011;24125;47.482;8.770;2022-09-06T03:56:27;2.80;;;2.22;;
36385;SDS011;24125;47.482;8.770;2022-09-06T03:59:00;3.78;;;2.10;;
36385;SDS011;24125;47.482;8.770;2022-09-06T04:01:33;4.45;;;2.10;;
36385;SDS011;24125;47.482;8.770;2022-09-06T04:04:08;4.07;;;1.90;;
36385;SDS011;24125;47.482;8.770;2022-09-06T04:06:40;5.03;;;1.83;;
36385;SDS011;24125;47.482;8.770;2022-09-06T04:09:14;3.22;;;1.80;;
36385;SDS011;24125;47.482;8.770;2022-09-06T04:11:47;3.53;;;2.00;;
36385;SDS011;24125;47.482;8.770;2022-09-06T04:14:20;3.67;;;2.20;;
36385;SDS011;24125;47.482;8.770;2022-09-06T04:16:53;4.18;;;2.05;;
36385;SDS011;24125;47.482;8.770;2022-09-06T04:19:27;4.22;;;2.03;;
36385;SDS011;24125;47.482;8.770;2022-09-06T04:22:00;3.42;;;2.00;;
36385;SDS011;24125;47.482;8.770;2022-09-06T04:24:33;3.80;;;2.30;;
36385;SDS011;24125;47.482;8.770;2022-09-06T04:27:06;3.40;;;2.10;;
36385;SDS011;24125;47.482;8.770;2022-09-06T04:29:39;3.45;;;2.10;;
36385;SDS011;24125;47.482;8.770;2022-09-06T04:32:12;4.00;;;2.17;;
36385;SDS011;24125;47.482;8.770;2022-09-06T04:34:46;3.78;;;2.10;;
36385;SDS011;24125;47.482;8.770;2022-09-06T04:37:19;3.80;;;2.22;;
36385;SDS011;24125;47.482;8.770;2022-09-06T04:39:52;3.58;;;2.05;;
36385;SDS011;24125;47.482;8.770;2022-09-06T04:42:26;4.57;;;1.77;;
36385;SDS011;24125;47.482;8.770;2022-09-06T04:44:58;2.40;;;1.70;;
36385;SDS011;24125;47.482;8.770;2022-09-06T04:47:31;4.40;;;2.10;;
36385;SDS011;24125;47.482;8.770;2022-09-06T04:50:06;3.25;;;1.98;;
36385;SDS011;24125;47.482;8.770;2022-09-06T04:52:40;4.75;;;1.73;;
36385;SDS011;24125;47.482;8.770;2022-09-06T04:55:13;2.08;;;1.70;;
36385;SDS011;24125;47.482;8.770;2022-09-06T04:57:46;4.85;;;2.25;;
36385;SDS011;24125;47.482;8.770;2022-09-06T05:00:21;3.65;;;2.20;;
36385;SDS011;24125;47.482;8.770;2022-09-06T05:02:54;2.78;;;2.08;;
36385;SDS011;24125;47.482;8.770;2022-09-06T05:05:29;2.95;;;1.85;;
36385;SDS011;24125;47.482;8.770;2022-09-06T05:08:02;3.88;;;2.03;;
36385;SDS011;24125;47.482;8.770;2022-09-06T05:10:35;2.75;;;1.95;;
36385;SDS011;24125;47.482;8.770;2022-09-06T05:13:07;4.35;;;2.20;;
36385;SDS011;24125;47.482;8.770;2022-09-06T05:15:41;3.78;;;2.22;;
36385;SDS011;24125;47.482;8.770;2022-09-06T05:18:13;3.22;;;1.90;;
36385;SDS011;24125;47.482;8.770;2022-09-06T05:20:51;3.60;;;1.90;;
36385;SDS011;24125;47.482;8.770;2022-09-06T05:23:24;5.45;;;2.08;;
36385;SDS011;24125;47.482;8.770;2022-09-06T05:25:58;4.45;;;2.40;;
36385;SDS011;24125;47.482;8.770;2022-09-06T05:28:31;6.68;;;2.20;;
36385;SDS011;24125;47.482;8.770;2022-09-06T05:31:04;4.90;;;2.50;;
36385;SDS011;24125;47.482;8.770;2022-09-06T05:33:38;2.20;;;1.95;;
36385;SDS011;24125;47.482;8.770;2022-09-06T05:36:12;2.67;;;2.33;;
36385;SDS011;24125;47.482;8.770;2022-09-06T05:38:45;4.43;;;2.47;;
36385;SDS011;24125;47.482;8.770;2022-09-06T05:41:18;3.45;;;2.22;;
36385;SDS011;24125;47.482;8.770;2022-09-06T05:43:51;5.05;;;2.50;;
36385;SDS011;24125;47.482;8.770;2022-09-06T05:46:24;4.53;;;2.10;;
36385;SDS011;24125;47.482;8.770;2022-09-06T05:48:58;3.08;;;2.28;;
36385;SDS011;24125;47.482;8.770;2022-09-06T05:51:36;3.72;;;2.35;;
36385;SDS011;24125;47.482;8.770;2022-09-06T05:54:09;3.55;;;2.42;;
36385;SDS011;24125;47.482;8.770;2022-09-06T05:56:43;3.65;;;2.20;;
36385;SDS011;24125;47.482;8.770;2022-09-06T05:59:16;3.58;;;2.33;;
36385;SDS011;24125;47.482;8.770;2022-09-06T06:01:49;6.05;;;2.40;;
36385;SDS011;24125;47.482;8.770;2022-09-06T06:04:24;5.68;;;2.50;;
36385;SDS011;24125;47.482;8.770;2022-09-06T06:06:58;5.20;;;2.28;;
36385;SDS011;24125;47.482;8.770;2022-09-06T06:09:32;4.93;;;2.10;;
36385;SDS011;24125;47.482;8.770;2022-09-06T06:12:05;4.07;;;1.95;;
36385;SDS011;24125;47.482;8.770;2022-09-06T06:14:38;3.92;;;2.20;;
36385;SDS011;24125;47.482;8.770;2022-09-06T06:17:11;3.45;;;2.00;;
36385;SDS011;24125;47.482;8.770;2022-09-06T06:19:44;6.47;;;2.25;;
36385;SDS011;24125;47.482;8.770;2022-09-06T06:22:18;5.90;;;2.42;;
36385;SDS011;24125;47.482;8.770;2022-09-06T06:24:53;4.72;;;2.03;;
36385;SDS011;24125;47.482;8.770;2022-09-06T06:27:26;5.47;;;2.05;;
36385;SDS011;24125;47.482;8.770;2022-09-06T06:29:59;4.95;;;2.20;;
36385;SDS011;24125;47.482;8.770;2022-09-06T06:32:32;3.92;;;2.08;;
36385;SDS011;24125;47.482;8.770;2022-09-06T06:35:05;6.05;;;2.38;;
36385;SDS011;24125;47.482;8.770;2022-09-06T06:37:41;5.53;;;2.00;;
36385;SDS011;24125;47.482;8.770;2022-09-06T06:40:15;3.67;;;1.73;;
36385;SDS011;24125;47.482;8.770;2022-09-06T06:42:47;4.18;;;1.90;;
36385;SDS011;24125;47.482;8.770;2022-09-06T06:45:20;3.40;;;2.00;;
36385;SDS011;24125;47.482;8.770;2022-09-06T06:47:53;4.05;;;1.92;;
36385;SDS011;24125;47.482;8.770;2022-09-06T06:50:26;4.35;;;2.00;;
36385;SDS011;24125;47.482;8.770;2022-09-06T06:53:00;6.15;;;2.10;;
36385;SDS011;24125;47.482;8.770;2022-09-06T06:55:33;5.85;;;2.25;;
36385;SDS011;24125;47.482;8.770;2022-09-06T06:58:06;4.22;;;2.00;;
36385;SDS011;24125;47.482;8.770;2022-09-06T07:00:39;5.00;;;2.00;;
36385;SDS011;24125;47.482;8.770;2022-09-06T07:03:12;4.72;;;1.80;;
36385;SDS011;24125;47.482;8.770;2022-09-06T07:05:45;8.27;;;2.35;;
36385;SDS011;24125;47.482;8.770;2022-09-06T07:08:40;3.85;;;1.95;;
36385;SDS011;24125;47.482;8.770;2022-09-06T07:11:14;3.92;;;1.65;;
36385;SDS011;24125;47.482;8.770;2022-09-06T07:13:53;3.50;;;2.08;;
36385;SDS011;24125;47.482;8.770;2022-09-06T07:16:26;3.53;;;1.67;;
36385;SDS011;24125;47.482;8.770;2022-09-06T07:19:00;4.25;;;1.95;;
36385;SDS011;24125;47.482;8.770;2022-09-06T07:21:34;6.20;;;1.98;;
36385;SDS011;24125;47.482;8.770;2022-09-06T07:24:08;5.40;;;1.75;;
36385;SDS011;24125;47.482;8.770;2022-09-06T07:26:42;6.40;;;1.80;;
36385;SDS011;24125;47.482;8.770;2022-09-06T07:29:34;7.45;;;2.08;;
36385;SDS011;24125;47.482;8.770;2022-09-06T07:32:07;5.53;;;1.90;;
36385;SDS011;24125;47.482;8.770;2022-09-06T07:34:41;5.28;;;1.73;;
36385;SDS011;24125;47.482;8.770;2022-09-06T07:37:14;5.25;;;2.33;;
36385;SDS011;24125;47.482;8.770;2022-09-06T07:39:48;5.13;;;2.35;;
36385;SDS011;24125;47.482;8.770;2022-09-06T07:42:22;7.05;;;2.38;;
36385;SDS011;24125;47.482;8.770;2022-09-06T07:44:54;5.85;;;2.40;;
36385;SDS011;24125;47.482;8.770;2022-09-06T07:47:28;9.18;;;2.65;;
36385;SDS011;24125;47.482;8.770;2022-09-06T07:50:20;6.38;;;2.35;;
36385;SDS011;24125;47.482;8.770;2022-09-06T07:53:13;5.60;;;2.00;;
36385;SDS011;24125;47.482;8.770;2022-09-06T07:56:01;7.38;;;2.50;;
36385;SDS011;24125;47.482;8.770;2022-09-06T07:58:35;5.80;;;2.85;;
36385;SDS011;24125;47.482;8.770;2022-09-06T08:01:13;5.50;;;2.38;;
36385;SDS011;24125;47.482;8.770;2022-09-06T08:03:50;4.20;;;2.03;;
36385;SDS011;24125;47.482;8.770;2022-09-06T08:06:24;9.38;;;2.85;;
36385;SDS011;24125;47.482;8.770;2022-09-06T08:08:58;4.60;;;2.72;;
36385;SDS011;24125;47.482;8.770;2022-09-06T08:11:34;7.05;;;2.63;;
36385;SDS011;24125;47.482;8.770;2022-09-06T08:14:08;3.55;;;2.30;;
36385;SDS011;24125;47.482;8.770;2022-09-06T08:16:41;4.85;;;2.15;;
36385;SDS011;24125;47.482;8.770;2022-09-06T08:19:14;6.32;;;2.30;;
36385;SDS011;24125;47.482;8.770;2022-09-06T08:21:48;6.28;;;2.90;;
36385;SDS011;24125;47.482;8.770;2022-09-06T08:24:21;5.68;;;2.75;;
36385;SDS011;24125;47.482;8.770;2022-09-06T08:26:56;6.00;;;2.33;;
36385;SDS011;24125;47.482;8.770;2022-09-06T08:29:29;3.35;;;2.25;;
36385;SDS011;24125;47.482;8.770;2022-09-06T08:32:02;6.68;;;2.20;;
36385;SDS011;24125;47.482;8.770;2022-09-06T08:34:35;4.50;;;2.60;;
36385;SDS011;24125;47.482;8.770;2022-09-06T08:37:08;3.03;;;1.83;;
36385;SDS011;24125;47.482;8.770;2022-09-06T08:39:40;4.00;;;1.58;;
36385;SDS011;24125;47.482;8.770;2022-09-06T08:42:15;3.10;;;1.73;;
36385;SDS011;24125;47.482;8.770;2022-09-06T08:44:49;3.95;;;1.75;;
36385;SDS011;24125;47.482;8.770;2022-09-06T08:47:24;4.90;;;1.88;;
36385;SDS011;24125;47.482;8.770;2022-09-06T08:49:59;3.13;;;1.73;;
36385;SDS011;24125;47.482;8.770;2022-09-06T08:52:48;3.67;;;1.80;;
36385;SDS011;24125;47.482;8.770;2022-09-06T08:55:49;4.25;;;1.80;;
36385;SDS011;24125;47.482;8.770;2022-09-06T08:58:31;4.65;;;1.83;;
36385;SDS011;24125;47.482;8.770;2022-09-06T09:01:12;3.22;;;1.90;;
36385;SDS011;24125;47.482;8.770;2022-09-06T09:03:49;4.82;;;1.98;;
36385;SDS011;24125;47.482;8.770;2022-09-06T09:06:28;3.00;;;1.63;;
36385;SDS011;24125;47.482;8.770;2022-09-06T09:09:04;4.68;;;2.15;;
36385;SDS011;24125;47.482;8.770;2022-09-06T09:11:38;9.43;;;1.83;;
36385;SDS011;24125;47.482;8.770;2022-09-06T09:14:17;3.38;;;2.08;;
36385;SDS011;24125;47.482;8.770;2022-09-06T09:16:54;5.15;;;2.10;;
36385;SDS011;24125;47.482;8.770;2022-09-06T09:19:30;3.20;;;2.00;;
36385;SDS011;24125;47.482;8.770;2022-09-06T09:22:06;3.15;;;2.05;;
36385;SDS011;24125;47.482;8.770;2022-09-06T09:24:41;3.92;;;2.38;;
36385;SDS011;24125;47.482;8.770;2022-09-06T09:27:15;3.88;;;2.35;;
36385;SDS011;24125;47.482;8.770;2022-09-06T09:30:00;4.25;;;2.30;;
36385;SDS011;24125;47.482;8.770;2022-09-06T09:32:56;6.10;;;2.30;;
36385;SDS011;24125;47.482;8.770;2022-09-06T09:35:30;3.75;;;2.38;;
36385;SDS011;24125;47.482;8.770;2022-09-06T09:38:05;3.95;;;2.28;;
36385;SDS011;24125;47.482;8.770;2022-09-06T09:40:48;4.30;;;2.30;;
36385;SDS011;24125;47.482;8.770;2022-09-06T09:43:22;5.88;;;2.30;;
36385;SDS011;24125;47.482;8.770;2022-09-06T09:46:26;3.30;;;2.15;;
36385;SDS011;24125;47.482;8.770;2022-09-06T09:49:05;4.18;;;2.08;;
36385;SDS011;24125;47.482;8.770;2022-09-06T09:51:39;4.25;;;2.15;;
36385;SDS011;24125;47.482;8.770;2022-09-06T09:54:15;5.93;;;2.40;;
36385;SDS011;24125;47.482;8.770;2022-09-06T09:57:05;4.57;;;2.40;;
36385;SDS011;24125;47.482;8.770;2022-09-06T09:59:43;5.50;;;2.30;;
36385;SDS011;24125;47.482;8.770;2022-09-06T10:02:20;3.47;;;2.03;;
36385;SDS011;24125;47.482;8.770;2022-09-06T10:05:02;4.57;;;1.90;;
36385;SDS011;24125;47.482;8.770;2022-09-06T10:07:40;3.60;;;2.03;;
36385;SDS011;24125;47.482;8.770;2022-09-06T10:10:20;4.50;;;2.10;;
36385;SDS011;24125;47.482;8.770;2022-09-06T10:13:04;5.07;;;1.88;;
36385;SDS011;24125;47.482;8.770;2022-09-06T10:15:40;4.53;;;2.17;;
36385;SDS011;24125;47.482;8.770;2022-09-06T10:18:16;3.30;;;1.85;;
36385;SDS011;24125;47.482;8.770;2022-09-06T10:21:01;6.07;;;2.30;;
36385;SDS011;24125;47.482;8.770;2022-09-06T10:23:40;3.60;;;2.13;;
36385;SDS011;24125;47.482;8.770;2022-09-06T10:26:52;4.38;;;2.33;;
36385;SDS011;24125;47.482;8.770;2022-09-06T10:29:29;3.88;;;2.10;;
36385;SDS011;24125;47.482;8.770;2022-09-06T10:32:15;6.75;;;2.15;;
36385;SDS011;24125;47.482;8.770;2022-09-06T10:35:04;4.28;;;2.10;;
36385;SDS011;24125;47.482;8.770;2022-09-06T10:37:45;3.33;;;2.10;;
36385;SDS011;24125;47.482;8.770;2022-09-06T10:40:25;3.63;;;2.00;;
36385;SDS011;24125;47.482;8.770;2022-09-06T10:43:03;2.78;;;2.05;;
36385;SDS011;24125;47.482;8.770;2022-09-06T10:45:43;5.90;;;2.30;;
36385;SDS011;24125;47.482;8.770;2022-09-06T10:48:19;4.28;;;2.10;;
36385;SDS011;24125;47.482;8.770;2022-09-06T10:51:02;4.95;;;2.03;;
36385;SDS011;24125;47.482;8.770;2022-09-06T10:53:42;7.10;;;2.50;;
36385;SDS011;24125;47.482;8.770;2022-09-06T10:56:21;5.13;;;2.10;;
36385;SDS011;24125;47.482;8.770;2022-09-06T10:58:58;5.07;;;2.08;;
36385;SDS011;24125;47.482;8.770;2022-09-06T11:01:57;7.65;;;2.22;;
36385;SDS011;24125;47.482;8.770;2022-09-06T11:04:40;3.88;;;2.08;;
36385;SDS011;24125;47.482;8.770;2022-09-06T11:07:39;7.85;;;2.78;;
36385;SDS011;24125;47.482;8.770;2022-09-06T11:10:35;4.03;;;1.92;;
36385;SDS011;24125;47.482;8.770;2022-09-06T11:13:10;3.88;;;2.22;;
36385;SDS011;24125;47.482;8.770;2022-09-06T11:15:48;7.05;;;2.40;;
36385;SDS011;24125;47.482;8.770;2022-09-06T11:18:26;7.45;;;2.20;;
36385;SDS011;24125;47.482;8.770;2022-09-06T11:21:12;4.55;;;2.17;;
36385;SDS011;24125;47.482;8.770;2022-09-06T11:24:01;5.55;;;2.60;;
36385;SDS011;24125;47.482;8.770;2022-09-06T11:26:43;4.35;;;1.75;;
36385;SDS011;24125;47.482;8.770;2022-09-06T11:29:26;5.50;;;2.13;;
36385;SDS011;24125;47.482;8.770;2022-09-06T11:32:02;5.30;;;2.30;;
36385;SDS011;24125;47.482;8.770;2022-09-06T11:34:56;4.72;;;2.17;;
36385;SDS011;24125;47.482;8.770;2022-09-06T11:37:33;6.65;;;2.40;;
36385;SDS011;24125;47.482;8.770;2022-09-06T11:40:15;3.75;;;1.33;;
36385;SDS011;24125;47.482;8.770;2022-09-06T11:43:15;4.45;;;1.88;;
36385;SDS011;24125;47.482;8.770;2022-09-06T11:45:50;4.47;;;1.63;;
36385;SDS011;24125;47.482;8.770;2022-09-06T11:48:31;7.78;;;2.30;;
36385;SDS011;24125;47.482;8.770;2022-09-06T11:51:07;5.78;;;2.00;;
36385;SDS011;24125;47.482;8.770;2022-09-06T11:56:48;3.60;;;1.70;;
36385;SDS011;24125;47.482;8.770;2022-09-06T11:59:29;4.78;;;1.40;;
36385;SDS011;24125;47.482;8.770;2022-09-06T12:08:25;4.18;;;1.85;;
36385;SDS011;24125;47.482;8.770;2022-09-06T12:14:01;3.17;;;1.63;;
36385;SDS011;24125;47.482;8.770;2022-09-06T12:20:04;7.03;;;2.10;;
36385;SDS011;24125;47.482;8.770;2022-09-06T12:22:50;7.35;;;2.35;;
36385;SDS011;24125;47.482;8.770;2022-09-06T12:28:32;3.90;;;2.13;;
36385;SDS011;24125;47.482;8.770;2022-09-06T12:31:31;4.07;;;1.80;;
36385;SDS011;24125;47.482;8.770;2022-09-06T12:34:11;5.30;;;2.47;;
36385;SDS011;24125;47.482;8.770;2022-09-06T12:36:50;4.70;;;1.85;;
36385;SDS011;24125;47.482;8.770;2022-09-06T12:39:26;4.38;;;1.95;;
36385;SDS011;24125;47.482;8.770;2022-09-06T12:42:00;3.33;;;1.67;;
36385;SDS011;24125;47.482;8.770;2022-09-06T12:44:36;6.72;;;1.90;;
36385;SDS011;24125;47.482;8.770;2022-09-06T12:47:15;2.45;;;1.13;;
36385;SDS011;24125;47.482;8.770;2022-09-06T12:50:08;8.18;;;2.17;;
36385;SDS011;24125;47.482;8.770;2022-09-06T12:52:46;2.22;;;1.00;;
36385;SDS011;24125;47.482;8.770;2022-09-06T12:55:21;4.13;;;1.13;;
36385;SDS011;24125;47.482;8.770;2022-09-06T12:57:56;5.38;;;1.48;;
36385;SDS011;24125;47.482;8.770;2022-09-06T13:00:31;4.75;;;1.55;;
36385;SDS011;24125;47.482;8.770;2022-09-06T13:03:11;8.93;;;1.73;;
36385;SDS011;24125;47.482;8.770;2022-09-06T13:05:57;4.18;;;1.50;;
36385;SDS011;24125;47.482;8.770;2022-09-06T13:08:36;2.33;;;1.42;;
36385;SDS011;24125;47.482;8.770;2022-09-06T13:11:16;4.15;;;1.35;;
36385;SDS011;24125;47.482;8.770;2022-09-06T13:13:55;5.28;;;1.75;;
36385;SDS011;24125;47.482;8.770;2022-09-06T13:16:30;12.32;;;1.80;;
36385;SDS011;24125;47.482;8.770;2022-09-06T13:19:10;3.55;;;1.63;;
36385;SDS011;24125;47.482;8.770;2022-09-06T13:21:45;3.60;;;1.50;;
36385;SDS011;24125;47.482;8.770;2022-09-06T13:24:19;4.47;;;1.63;;
36385;SDS011;24125;47.482;8.770;2022-09-06T13:26:54;4.00;;;1.42;;
36385;SDS011;24125;47.482;8.770;2022-09-06T13:29:28;1.65;;;1.30;;
36385;SDS011;24125;47.482;8.770;2022-09-06T13:32:02;2.65;;;1.48;;
36385;SDS011;24125;47.482;8.770;2022-09-06T13:34:41;3.70;;;1.48;;
36385;SDS011;24125;47.482;8.770;2022-09-06T13:37:23;2.78;;;1.17;;
36385;SDS011;24125;47.482;8.770;2022-09-06T13:39:57;4.05;;;1.23;;
36385;SDS011;24125;47.482;8.770;2022-09-06T13:42:36;4.05;;;1.20;;
36385;SDS011;24125;47.482;8.770;2022-09-06T13:45:15;3.08;;;1.33;;
36385;SDS011;24125;47.482;8.770;2022-09-06T13:47:55;3.00;;;1.30;;
36385;SDS011;24125;47.482;8.770;2022-09-06T13:50:49;2.45;;;1.13;;
36385;SDS011;24125;47.482;8.770;2022-09-06T13:53:22;1.77;;;1.10;;
36385;SDS011;24125;47.482;8.770;2022-09-06T13:55:55;1.65;;;1.35;;
36385;SDS011;24125;47.482;8.770;2022-09-06T13:58:29;2.15;;;1.15;;
36385;SDS011;24125;47.482;8.770;2022-09-06T14:01:02;1.83;;;1.10;;
36385;SDS011;24125;47.482;8.770;2022-09-06T14:03:39;2.63;;;1.00;;
36385;SDS011;24125;47.482;8.770;2022-09-06T14:06:14;3.08;;;1.20;;
36385;SDS011;24125;47.482;8.770;2022-09-06T14:08:48;3.50;;;1.08;;
36385;SDS011;24125;47.482;8.770;2022-09-06T14:11:38;2.63;;;1.08;;
36385;SDS011;24125;47.482;8.770;2022-09-06T14:14:19;2.40;;;1.60;;
36385;SDS011;24125;47.482;8.770;2022-09-06T14:16:52;1.77;;;1.00;;
36385;SDS011;24125;47.482;8.770;2022-09-06T14:19:25;2.20;;;1.05;;
36385;SDS011;24125;47.482;8.770;2022-09-06T14:22:00;2.53;;;1.08;;
36385;SDS011;24125;47.482;8.770;2022-09-06T14:24:35;3.03;;;1.20;;
36385;SDS011;24125;47.482;8.770;2022-09-06T14:27:08;2.33;;;0.85;;
36385;SDS011;24125;47.482;8.770;2022-09-06T14:29:41;1.52;;;1.10;;
36385;SDS011;24125;47.482;8.770;2022-09-06T14:32:14;2.33;;;1.10;;
36385;SDS011;24125;47.482;8.770;2022-09-06T14:34:52;3.05;;;0.93;;
36385;SDS011;24125;47.482;8.770;2022-09-06T14:37:27;2.33;;;0.85;;
36385;SDS011;24125;47.482;8.770;2022-09-06T14:40:00;2.90;;;0.90;;
36385;SDS011;24125;47.482;8.770;2022-09-06T14:42:33;2.88;;;1.00;;
36385;SDS011;24125;47.482;8.770;2022-09-06T14:45:07;5.38;;;1.02;;
36385;SDS011;24125;47.482;8.770;2022-09-06T14:47:41;2.13;;;1.05;;
36385;SDS011;24125;47.482;8.770;2022-09-06T14:50:14;1.80;;;1.10;;
36385;SDS011;24125;47.482;8.770;2022-09-06T14:52:48;3.40;;;1.00;;
36385;SDS011;24125;47.482;8.770;2022-09-06T14:55:24;1.38;;;1.00;;
36385;SDS011;24125;47.482;8.770;2022-09-06T14:57:58;4.80;;;1.33;;
36385;SDS011;24125;47.482;8.770;2022-09-06T15:00:31;3.17;;;1.15;;
36385;SDS011;24125;47.482;8.770;2022-09-06T15:03:04;2.50;;;1.15;;
36385;SDS011;24125;47.482;8.770;2022-09-06T15:05:37;3.05;;;1.00;;
36385;SDS011;24125;47.482;8.770;2022-09-06T15:08:12;1.90;;;1.13;;
36385;SDS011;24125;47.482;8.770;2022-09-06T15:10:50;4.35;;;1.30;;
36385;SDS011;24125;47.482;8.770;2022-09-06T15:13:24;2.38;;;1.30;;
36385;SDS011;24125;47.482;8.770;2022-09-06T15:15:58;3.53;;;1.02;;
36385;SDS011;24125;47.482;8.770;2022-09-06T15:18:31;3.90;;;1.25;;
36385;SDS011;24125;47.482;8.770;2022-09-06T15:21:08;3.50;;;1.20;;
36385;SDS011;24125;47.482;8.770;2022-09-06T15:23:42;2.13;;;1.13;;
36385;SDS011;24125;47.482;8.770;2022-09-06T15:26:16;2.90;;;1.33;;
36385;SDS011;24125;47.482;8.770;2022-09-06T15:28:49;4.03;;;1.30;;
36385;SDS011;24125;47.482;8.770;2022-09-06T15:31:22;3.95;;;1.02;;
36385;SDS011;24125;47.482;8.770;2022-09-06T15:33:55;1.48;;;1.17;;
36385;SDS011;24125;47.482;8.770;2022-09-06T15:36:28;3.40;;;1.20;;
36385;SDS011;24125;47.482;8.770;2022-09-06T15:39:04;2.83;;;1.35;;
36385;SDS011;24125;47.482;8.770;2022-09-06T15:41:37;3.08;;;1.30;;
36385;SDS011;24125;47.482;8.770;2022-09-06T15:44:11;2.85;;;1.02;;
36385;SDS011;24125;47.482;8.770;2022-09-06T15:46:47;4.50;;;1.20;;
36385;SDS011;24125;47.482;8.770;2022-09-06T15:49:22;3.90;;;1.60;;
36385;SDS011;24125;47.482;8.770;2022-09-06T15:51:59;1.85;;;1.10;;
36385;SDS011;24125;47.482;8.770;2022-09-06T15:54:35;4.05;;;1.27;;
36385;SDS011;24125;47.482;8.770;2022-09-06T15:57:28;2.08;;;1.27;;
36385;SDS011;24125;47.482;8.770;2022-09-06T16:00:02;2.63;;;1.10;;
36385;SDS011;24125;47.482;8.770;2022-09-06T16:02:35;4.32;;;1.35;;
36385;SDS011;24125;47.482;8.770;2022-09-06T16:05:08;3.22;;;1.15;;